createdAt,value
2023-05-23T00:02:10.024Z,60.62
2023-05-23T00:07:11.726Z,60.88
2023-05-23T00:12:13.304Z,61.74
2023-05-23T00:17:17.539Z,63.34
2023-05-23T00:22:19.219Z,66.51
2023-05-23T00:27:20.823Z,71.20
2023-05-23T00:32:22.520Z,75.11
2023-05-23T00:37:24.333Z,76.71
2023-05-23T00:42:26.133Z,78.53
2023-05-23T00:47:28.002Z,81.33
2023-05-23T00:52:29.660Z,83.95
2023-05-23T00:57:31.436Z,80.45
2023-05-23T01:02:36.605Z,85.28
2023-05-23T01:07:38.384Z,82.27
2023-05-23T01:12:51.078Z,83.16
2023-05-23T01:18:00.684Z,83.93
2023-05-23T01:23:48.470Z,88.39
2023-05-23T01:28:53.505Z,86.39
2023-05-23T01:33:56.937Z,88.95
2023-05-23T01:38:58.574Z,89.62
2023-05-23T01:44:00.725Z,89.79
2023-05-23T01:49:04.116Z,91.51
2023-05-23T01:54:07.650Z,89.16
2023-05-23T01:59:09.692Z,88.00
2023-05-23T02:04:11.429Z,88.38
2023-05-23T02:09:13.190Z,89.72
2023-05-23T02:14:14.779Z,88.35
2023-05-23T02:19:17.279Z,88.09
2023-05-23T02:24:21.389Z,89.10
2023-05-23T02:29:22.997Z,88.50
2023-05-23T02:34:24.839Z,89.26
2023-05-23T02:39:27.407Z,88.82
2023-05-23T02:44:30.374Z,89.22
2023-05-23T02:49:32.443Z,89.96
2023-05-23T02:54:34.405Z,90.14
2023-05-23T02:59:36.099Z,91.33
2023-05-23T03:04:38.357Z,93.18
2023-05-23T03:09:40.035Z,93.35
2023-05-23T03:14:41.731Z,93.61
2023-05-23T03:19:43.508Z,93.08
2023-05-23T03:24:45.273Z,92.46
2023-05-23T03:29:48.171Z,93.22
2023-05-23T03:34:49.861Z,92.85
2023-05-23T03:39:51.544Z,91.71
2023-05-23T03:44:54.055Z,91.99
2023-05-23T03:49:56.709Z,95.07
2023-05-23T03:54:59.970Z,93.16
2023-05-23T04:00:06.135Z,92.87
2023-05-23T04:05:18.512Z,92.46
2023-05-23T04:10:20.981Z,91.78
2023-05-23T04:15:22.998Z,92.47
2023-05-23T04:20:30.546Z,92.32
2023-05-23T04:25:32.216Z,91.35
2023-05-23T04:30:54.211Z,93.57
2023-05-23T04:35:59.514Z,91.73
2023-05-23T04:41:01.507Z,92.62
2023-05-23T04:46:33.818Z,92.74
2023-05-23T04:52:01.505Z,93.71
2023-05-23T04:57:04.490Z,94.46
2023-05-23T05:02:06.569Z,95.13
2023-05-23T05:07:08.752Z,95.05
2023-05-23T05:12:10.619Z,93.66
2023-05-23T05:17:12.938Z,94.15
2023-05-23T05:22:25.835Z,94.88
2023-05-23T05:27:27.906Z,93.53
2023-05-23T05:32:36.417Z,90.26
2023-05-23T05:37:38.130Z,91.03
2023-05-23T05:42:39.928Z,90.28
2023-05-23T05:47:41.917Z,88.94
2023-05-23T05:52:43.838Z,89.88
2023-05-23T05:57:46.818Z,89.09
2023-05-23T06:02:55.033Z,88.28
2023-05-23T06:08:26.442Z,87.64
2023-05-23T06:13:28.331Z,87.62
2023-05-23T06:18:30.522Z,88.14
2023-05-23T06:23:32.431Z,89.14
2023-05-23T06:28:34.592Z,86.37
2023-05-23T06:33:36.596Z,86.33
2023-05-23T06:38:38.396Z,84.84
2023-05-23T06:43:41.007Z,84.73
2023-05-23T06:49:14.885Z,84.52
2023-05-23T06:54:19.604Z,84.21
2023-05-23T06:59:21.490Z,82.91
2023-05-23T07:04:23.988Z,80.39
2023-05-23T07:09:25.878Z,80.60
2023-05-23T07:14:38.311Z,80.78
2023-05-23T07:19:40.626Z,78.94
2023-05-23T07:24:42.264Z,78.08
2023-05-23T07:29:45.947Z,77.06
2023-05-23T07:34:49.516Z,74.99
2023-05-23T07:39:51.353Z,76.02
2023-05-23T07:44:53.540Z,75.75
2023-05-23T07:49:55.715Z,76.19
2023-05-23T07:54:58.922Z,76.70
2023-05-23T08:00:03.238Z,75.37
2023-05-23T08:05:05.773Z,75.09
2023-05-23T08:10:08.010Z,73.32
2023-05-23T08:15:10.386Z,74.50
2023-05-23T08:20:30.460Z,72.07
2023-05-23T08:25:32.599Z,71.57
2023-05-23T08:30:35.105Z,72.07
2023-05-23T08:35:37.885Z,70.54
2023-05-23T08:40:50.638Z,70.93
2023-05-23T08:45:53.737Z,71.34
2023-05-23T08:50:55.770Z,70.88
2023-05-23T08:56:02.657Z,69.85
2023-05-23T09:01:13.566Z,69.88
2023-05-23T09:06:16.161Z,69.68
2023-05-23T09:11:18.110Z,69.89
2023-05-23T09:16:20.417Z,69.39
2023-05-23T09:21:26.248Z,70.52
2023-05-23T09:26:38.174Z,70.72
2023-05-23T09:31:40.390Z,71.86
2023-05-23T09:36:44.143Z,72.56
2023-05-23T09:41:48.788Z,74.41
2023-05-23T09:46:53.780Z,74.15
2023-05-23T09:52:00.296Z,73.15
2023-05-23T09:57:02.925Z,72.64
2023-05-23T10:02:07.470Z,73.43
2023-05-23T10:07:17.269Z,72.56
2023-05-23T10:12:39.245Z,73.38
2023-05-23T10:18:07.826Z,70.99
2023-05-23T10:23:10.016Z,69.41
2023-05-23T10:28:12.202Z,67.83
2023-05-23T10:33:15.257Z,65.79
2023-05-23T10:38:16.962Z,65.93
2023-05-23T10:43:18.554Z,66.42
2023-05-23T10:48:40.913Z,66.78
2023-05-23T10:53:44.126Z,66.13
2023-05-23T10:58:45.805Z,65.47
2023-05-23T11:03:48.645Z,65.62
2023-05-23T11:09:11.887Z,65.59
2023-05-23T11:14:14.380Z,66.02
2023-05-23T11:19:19.573Z,66.66
2023-05-23T11:24:22.647Z,65.60
2023-05-23T11:29:29.206Z,65.92
2023-05-23T11:34:31.073Z,64.84
2023-05-23T11:39:32.761Z,64.81
2023-05-23T11:44:34.448Z,64.01
2023-05-23T11:49:39.890Z,63.60
2023-05-23T11:54:44.883Z,63.57
2023-05-23T11:59:46.543Z,65.03
2023-05-23T12:04:51.175Z,64.38
2023-05-23T12:09:56.689Z,64.73
2023-05-23T12:14:59.442Z,64.74
2023-05-23T12:20:01.460Z,64.53
2023-05-23T12:25:05.009Z,64.93
2023-05-23T12:30:14.254Z,65.14
2023-05-23T12:35:16.547Z,66.18
2023-05-23T12:40:19.339Z,67.84
2023-05-23T12:45:32.030Z,67.52
2023-05-23T12:50:33.729Z,67.53
2023-05-23T12:55:35.530Z,66.07
2023-05-23T13:00:37.816Z,64.42
2023-05-23T13:05:39.961Z,63.87
2023-05-23T13:10:42.085Z,65.14
2023-05-23T13:15:43.973Z,65.54
2023-05-23T13:20:46.497Z,65.57
2023-05-23T13:25:50.518Z,66.19
2023-05-23T13:30:52.166Z,66.60
2023-05-23T13:35:54.274Z,67.35
2023-05-23T13:40:55.988Z,70.72
2023-05-23T13:45:57.705Z,69.89
2023-05-23T13:50:59.590Z,69.43
2023-05-23T13:56:01.691Z,69.54
2023-05-23T14:01:03.319Z,70.73
2023-05-23T14:06:05.237Z,70.88
2023-05-23T14:11:06.895Z,70.69
2023-05-23T14:16:08.740Z,71.55
2023-05-23T14:21:10.643Z,70.52
2023-05-23T14:26:12.350Z,70.54
2023-05-23T14:31:13.977Z,70.00
2023-05-23T14:36:16.324Z,70.53
2023-05-23T14:41:18.689Z,70.36
2023-05-23T14:46:20.406Z,72.04
2023-05-23T14:51:41.811Z,72.64
2023-05-23T14:56:43.851Z,72.98
2023-05-23T15:01:45.722Z,73.28
2023-05-23T15:06:47.496Z,71.62
2023-05-23T15:11:49.596Z,73.13
2023-05-23T15:16:51.667Z,73.42
2023-05-23T15:21:53.317Z,74.66
2023-05-23T15:26:56.812Z,74.28
2023-05-23T15:32:01.962Z,74.43
2023-05-23T15:37:03.904Z,74.59
2023-05-23T15:42:05.954Z,73.90
2023-05-23T15:47:07.613Z,75.09
2023-05-23T15:52:09.288Z,75.71
2023-05-23T15:57:11.195Z,74.84
2023-05-23T16:02:12.909Z,74.04
2023-05-23T16:07:16.409Z,75.10
2023-05-23T16:12:19.940Z,75.48
2023-05-23T16:17:21.586Z,78.48
2023-05-23T16:22:23.702Z,80.37
2023-05-23T16:27:25.382Z,82.77
2023-05-23T16:32:30.879Z,83.39
2023-05-23T16:37:32.610Z,86.20
2023-05-23T16:42:34.313Z,84.78
2023-05-23T16:47:36.328Z,84.27
2023-05-23T16:52:39.588Z,84.07
2023-05-23T16:57:41.240Z,84.68
2023-05-23T17:02:42.981Z,84.60
2023-05-23T17:07:44.652Z,85.04
2023-05-23T17:12:46.366Z,85.61
2023-05-23T17:17:48.187Z,86.13
2023-05-23T17:22:51.799Z,85.12
2023-05-23T17:27:53.513Z,85.77
2023-05-23T17:32:55.345Z,84.57
2023-05-23T17:38:00.849Z,85.54
2023-05-23T17:43:02.554Z,86.38
2023-05-23T17:48:04.402Z,86.43
2023-05-23T17:53:06.299Z,87.29
2023-05-23T17:58:07.995Z,86.76
2023-05-23T18:03:09.823Z,87.91
2023-05-23T18:08:11.492Z,86.60
2023-05-23T18:13:16.129Z,86.62
2023-05-23T18:18:18.246Z,85.38
2023-05-23T18:23:19.990Z,87.39
2023-05-23T18:28:21.799Z,87.12
2023-05-23T18:33:23.450Z,87.85
2023-05-23T18:38:25.518Z,87.24
2023-05-23T18:43:27.194Z,86.36
2023-05-23T18:48:29.295Z,87.40
2023-05-23T18:53:31.248Z,87.78
2023-05-23T18:58:32.952Z,87.93
2023-05-23T19:03:36.834Z,88.27
2023-05-23T19:08:38.642Z,88.20
2023-05-23T19:13:40.326Z,88.78
2023-05-23T19:18:41.942Z,88.32
2023-05-23T19:23:43.566Z,88.60
2023-05-23T19:28:45.261Z,90.99
2023-05-23T19:33:46.955Z,88.41
2023-05-23T19:38:48.599Z,89.25
2023-05-23T19:43:50.470Z,89.07
2023-05-23T19:48:52.208Z,88.47
2023-05-23T19:53:54.614Z,88.46
2023-05-23T19:58:56.327Z,85.74
2023-05-23T20:03:58.040Z,86.43
2023-05-23T20:08:59.874Z,85.96
2023-05-23T20:14:01.569Z,85.32
2023-05-23T20:19:03.250Z,85.26
2023-05-23T20:24:05.155Z,84.62
2023-05-23T20:29:06.909Z,85.10
2023-05-23T20:34:08.587Z,84.77
2023-05-23T20:39:10.215Z,84.33
2023-05-23T20:44:12.197Z,83.30
2023-05-23T20:49:15.463Z,83.81
2023-05-23T20:54:17.139Z,84.34
2023-05-23T20:59:18.833Z,83.34
2023-05-23T21:04:20.600Z,82.49
2023-05-23T21:09:22.311Z,82.47
2023-05-23T21:14:24.081Z,82.97
2023-05-23T21:19:25.929Z,82.51
2023-05-23T21:24:27.945Z,82.71
2023-05-23T21:29:29.613Z,81.40
2023-05-23T21:34:31.309Z,82.21
2023-05-23T21:39:47.135Z,81.98
2023-05-23T21:44:52.687Z,81.60
2023-05-23T21:49:54.368Z,81.34
2023-05-23T21:54:56.221Z,79.46
2023-05-23T21:59:57.836Z,79.14
2023-05-23T22:04:59.521Z,79.07
2023-05-23T22:10:01.448Z,77.71
2023-05-23T22:15:03.573Z,77.59
2023-05-23T22:20:05.693Z,77.45
2023-05-23T22:25:08.016Z,76.51
2023-05-23T22:30:10.148Z,75.86
2023-05-23T22:35:11.808Z,76.14
2023-05-23T22:40:13.444Z,76.92
2023-05-23T22:45:15.379Z,76.23
2023-05-23T22:50:17.724Z,75.82
2023-05-23T22:55:19.372Z,75.59
2023-05-23T23:00:21.513Z,75.74
2023-05-23T23:05:23.226Z,75.30
2023-05-23T23:10:25.164Z,74.29
2023-05-23T23:15:26.819Z,74.71
2023-05-23T23:20:28.561Z,73.85
2023-05-23T23:25:30.390Z,75.58
2023-05-23T23:30:32.064Z,74.10
2023-05-23T23:35:33.718Z,71.85
2023-05-23T23:40:35.427Z,72.07
2023-05-23T23:45:37.091Z,71.94
2023-05-23T23:50:38.825Z,71.35
2023-05-23T23:55:40.530Z,71.03
